• Join FlightAware (Why Join?)
  • Login
  • US Flag 
12:36AM EDT


 

Airport Tracker/Info


-or-


 

Live Flight TrackerFlight Track Log ✈ N513SJ ✈ 29-Aug-2013 ✈ KMCC - KUAO

Flight Track Log - Related Links

Times and Time Zones

All times are in EDT time to prevent confusion due to time zone crossing. See the N513SJ flight status page for this flight to view local times or setup timezone preferences in your user account.

Time Position Orientation Groundspeed Altitude Reporting Facility
EDT Latitude Longitude Course Direction KTS MPH feet Rate Location/Type
07:18PM 38.6333 -121.4333 339° North 130 150 1,400  Level Northern Cal TRACON
07:19PM 38.6667 -121.4500 339° North 142 163 2,100 660 Climbing Northern Cal TRACON
07:20PM 38.7000 -121.4667 339° North 145 167 2,800 720 Climbing Northern Cal TRACON
07:21PM 38.7333 -121.5000 322° Northwest 153 176 3,600 720 Climbing Northern Cal TRACON
07:23PM 38.8197 -121.5369 342° North 154 177 5,200 720 Climbing Oakland Center
07:24PM 38.8597 -121.5583 337° Northwest 157 181 6,000 720 Climbing Oakland Center
07:25PM 38.9003 -121.5789 338° Northwest 157 181 6,700 780 Climbing Oakland Center
07:26PM 38.9417 -121.6006 338° Northwest 160 184 7,600 720 Climbing Oakland Center
07:27PM 38.9839 -121.6239 337° Northwest 163 188 8,200 660 Climbing Oakland Center
07:28PM 39.0261 -121.6489 335° Northwest 165 190 9,000 780 Climbing Oakland Center
07:29PM 39.0794 -121.6761 338° Northwest 173 199 9,800 780 Climbing Oakland Center
07:30PM 39.1242 -121.7003 337° Northwest 174 200 10,600 720 Climbing Oakland Center
07:31PM 39.1683 -121.7239 337° Northwest 173 199 11,300 660 Climbing Oakland Center
07:32PM 39.2131 -121.7472 338° Northwest 173 199 12,000 660 Climbing Oakland Center
07:33PM 39.2572 -121.7711 337° Northwest 172 198 12,700 780 Climbing Oakland Center
07:34PM 39.3053 -121.7847 348° North 175 201 13,600 660 Climbing Oakland Center
07:35PM 39.3547 -121.7928 353° North 182 209 14,100 540 Climbing Oakland Center
07:36PM 39.4147 -121.8003 354° North 182 209 14,800 540 Climbing Oakland Center
07:37PM 39.4653 -121.8075 354° North 184 212 15,300 600 Climbing Oakland Center
07:38PM 39.5189 -121.8131 355° North 189 217 16,100 660 Climbing Oakland Center
07:39PM 39.5708 -121.8203 354° North 188 216 16,700 540 Climbing Oakland Center
07:40PM 39.6242 -121.8267 355° North 192 221 17,300 540 Climbing Oakland Center
07:41PM 39.6772 -121.8325 355° North 193 222 17,900 300 Climbing Oakland Center
07:42PM 39.7336 -121.8403 354° North 201 231 18,000  Climbing Oakland Center
07:43PM 39.8078 -121.8536 352° North 221 254 17,900 -60 Descending Oakland Center
07:44PM 39.8686 -121.8622 354° North 221 254 17,900  Level Oakland Center
07:45PM 39.9269 -121.8733 352° North 216 249 18,000  Climbing Oakland Center
07:46PM 39.9875 -121.8819 354° North 219 252 17,900 -60 Descending Oakland Center
07:47PM 40.0481 -121.8911 353° North 220 253 17,900  Level Oakland Center
07:49PM 40.1072 -121.9025 352° North 217 250 18,000  Climbing Oakland Center
07:50PM 40.1669 -121.9117 353° North 216 249 18,000  Level Oakland Center
07:51PM 40.2389 -121.9214 354° North 217 250 18,000  Level Oakland Center
07:52PM 40.2994 -121.9311 353° North 219 252 18,000  Level Oakland Center
07:53PM 40.3614 -121.9400 354° North 224 258 18,000  Level Oakland Center
07:54PM 40.4233 -121.9503 353° North 225 259 18,000  Level Oakland Center
07:55PM 40.4853 -121.9619 352° North 226 260 18,000  Level Oakland Center
07:56PM 40.5458 -121.9708 354° North 222 255 18,000  Level Oakland Center
07:57PM 40.6189 -121.9819 353° North 222 255 18,000  Level Oakland Center
07:58PM 40.6803 -121.9914 353° North 223 257 18,000  Level Oakland Center
07:59PM 40.7406 -122.0025 352° North 221 254 18,000  Level Oakland Center
08:00PM 40.8017 -122.0125 353° North 221 254 18,000  Level Oakland Center
08:01PM 40.8617 -122.0200 355° North 218 251 18,000  Level Oakland Center
08:02PM 40.9211 -122.0303 353° North 217 250 18,000  Level Oakland Center
08:03PM 40.9814 -122.0397 353° North 218 251 18,000  Level Oakland Center
08:04PM 41.0539 -122.0514 353° North 219 252 18,000  Level Oakland Center
08:05PM 41.1150 -122.0656 350° North 223 257 18,000  Level Oakland Center
08:06PM 41.1742 -122.0747 353° North 219 252 18,000  Level Oakland Center
08:07PM 41.2342 -122.0856 352° North 217 250 18,000  Level Oakland Center
08:08PM 41.2939 -122.0956 353° North 217 250 18,000  Level Oakland Center
08:09PM 41.3575 -122.1033 355° North 217 250 18,000  Level Oakland Center
08:10PM 41.4142 -122.1106 355° North 208 239 18,100 300 Climbing Oakland Center
08:11PM 41.4722 -122.1225 351° North 210 242 18,700 360 Climbing Oakland Center
08:12PM 41.5300 -122.1314 353° North 211 243 18,900 240 Climbing Oakland Center
08:13PM 41.5844 -122.1406 353° North 200 230 19,300 360 Climbing Oakland Center
08:14PM 41.6381 -122.1494 353° North 196 226 19,700 360 Climbing Oakland Center
08:15PM 41.6931 -122.1583 353° North 200 230 20,100 120 Climbing Oakland Center
08:16PM 41.7669 -122.1694 354° North 222 255 20,000 -60 Descending Oakland Center
08:17PM 41.8319 -122.1797 353° North 234 269 20,000  Level Oakland Center
08:18PM 41.8956 -122.1906 353° North 231 266 20,000  Level Oakland Center
08:19PM 41.9600 -122.2014 353° North 232 267 20,000  Level Oakland Center
08:20PM 42.0233 -122.2114 353° North 228 262 20,100  Climbing Oakland Center
08:21PM 42.0892 -122.2236 352° North 236 272 20,000 -60 Descending Oakland Center
08:22PM 42.1558 -122.2336 354° North 238 274 20,000  Level Oakland Center
08:23PM 42.2208 -122.2442 353° North 235 270 20,000  Level Oakland Center
08:25PM 42.2994 -122.2553 354° North 236 272 20,000  Level Seattle Center
08:26PM 42.3606 -122.2656 353° North 226 260 20,000  Level Seattle Center
08:27PM 42.4239 -122.2783 352° North 228 262 20,000  Level Seattle Center
08:28PM 42.4856 -122.2908 351° North 225 259 20,100  Climbing Seattle Center
08:29PM 42.5619 -122.3050 352° North 230 265 20,000 -60 Descending Seattle Center
08:30PM 42.6256 -122.3178 352° North 231 266 20,000  Level Seattle Center
08:31PM 42.6881 -122.3300 352° North 228 262 20,000  Level Seattle Center
08:32PM 42.7475 -122.3417 352° North 232 267 20,000  Level Seattle Center
08:33PM 42.8108 -122.3531 352° North 231 266 20,100  Climbing Seattle Center
08:34PM 42.8742 -122.3650 352° North 230 265 20,000  Descending Seattle Center
08:35PM 42.9483 -122.3811 351° North 226 260 20,100  Climbing Seattle Center
08:36PM 43.0122 -122.3936 352° North 230 265 20,000 -60 Descending Seattle Center
08:37PM 43.0753 -122.4075 351° North 230 265 20,000  Level Seattle Center
08:38PM 43.1269 -122.4417 334° Northwest 212 244 20,000  Level Seattle Center
08:39PM 43.1817 -122.4728 337° Northwest 213 245 20,000  Level Seattle Center
08:40PM 43.2442 -122.4789 356° North 220 253 20,000  Level Seattle Center
08:41PM 43.3056 -122.4928 351° North 224 258 20,100  Climbing Seattle Center
08:42PM 43.3667 -122.5056 351° North 223 257 20,000 -60 Descending Seattle Center
08:43PM 43.4292 -122.5167 353° North 228 262 20,000  Level Seattle Center
08:44PM 43.4917 -122.5258 354° North 228 262 20,100  Climbing Seattle Center
08:45PM 43.5669 -122.5397 352° North 230 265 20,000 -60 Descending Seattle Center
08:46PM 43.6300 -122.5522 352° North 230 265 20,000  Level Seattle Center
08:47PM 43.6931 -122.5619 354° North 230 265 20,000 -60 Level Seattle Center
08:48PM 43.7569 -122.5742 352° North 234 269 19,900 -480 Descending Seattle Center
08:49PM 43.8244 -122.5864 353° North 246 283 19,100 -840 Descending Seattle Center
08:50PM 43.8933 -122.6075 348° North 253 291 18,200 -900 Descending Seattle Center
08:51PM 43.9656 -122.6208 352° North 262 302 17,300 -900 Descending Seattle Center
08:52PM 44.0333 -122.6422 347° North 250 288 16,400 -900 Descending Seattle Center
08:53PM 44.0956 -122.6792 337° Northwest 244 281 15,500 -840 Descending Seattle Center
08:54PM 44.1578 -122.7133 338° Northwest 242 278 14,700 -900 Descending Seattle Center
08:55PM 44.2197 -122.7425 341° North 236 272 13,700 -1,020 Descending Seattle Center
08:56PM 44.2906 -122.7817 338° Northwest 229 264 12,700 -1,020 Descending Seattle Center
08:57PM 44.3525 -122.7897 355° North 244 281 11,700 -900 Descending Seattle Center
08:58PM 44.4206 -122.7908 359° North 244 281 10,900 -720 Descending Seattle Center
08:59PM 44.4839 -122.7922 359° North 232 267 10,300 -480 Descending Seattle Center
09:00PM 44.5450 -122.7947 358° North 223 257 10,000 -300 Descending Seattle Center
09:01PM 44.6025 -122.7986 357° North 211 243 9,700 -660 Descending Seattle Center
09:02PM 44.6661 -122.8003 359° North 225 259 8,700 -960 Descending Seattle Center
09:03PM 44.7278 -122.7994 North 225 259 7,800 -900 Descending Seattle Center
09:04PM 44.7919 -122.8017 359° North 230 265 6,900 -960 Descending Seattle Center
09:05PM 44.8542 -122.8039 359° North 226 260 5,900 -1,020 Descending Seattle Center
09:06PM 44.9081 -122.8047 359° North 219 252 5,100 -960 Descending Seattle Center
09:07PM 44.9686 -122.8050 360° North 220 253 4,300 -660 Descending Seattle Center
09:08PM 45.0397 -122.8058 360° North 219 252 3,700 -480 Descending Seattle Center
09:10PM 45.0967 -122.7783 North  Level FlightAware Approximate
09:17PM 45.2333 -122.7667 North  Level FlightAware Approximate
09:18PM 45.2471 -122.7701 North  Level Estimated